Data for 11/19/2015

Time Sea-Level Adjusted Pressure Absolute Pressure Temperature Relative Humidity Dew Point   
(mb) (inHg) (mb) (inHg) (C) (F) (%) (C) (F)
00:05 1019 30.09 848 25.04 -2.3 27.9 49 -11.6 11.1
00:10 1019 30.09 848 25.04 -2.3 27.9 48 -11.8 10.8
00:15 1019 30.09 848 25.04 -2.2 28 48 -11.8 10.8
00:20 1019 30.09 848 25.04 -2.2 28 48 -11.7 10.9
00:25 1019 30.09 848 25.04 -2.2 28.1 48 -11.8 10.7
00:30 1019 30.09 848 25.04 -2.1 28.2 48 -11.8 10.7
00:35 1019 30.09 848 25.04 -2.1 28.3 48 -11.7 10.9
00:40 1019 30.09 848 25.04 -2.1 28.3 48 -11.8 10.8
00:45 1019 30.09 848 25.04 -2.1 28.2 49 -11.6 11.2
00:50 1019 30.09 848 25.04 -2.1 28.1 49 -11.5 11.3
00:55 1019 30.09 848 25.04 -2.1 28.1 48 -11.7 10.9
01:00 1019 30.09 848 25.04 -2 28.3 46 -12.2 10
01:05 1019 30.09 848 25.04 -1.9 28.6 46 -12 10.3
01:10 1019 30.09 848 25.04 -1.9 28.6 46 -12.1 10.3
01:15 1019 30.09 848 25.04 -1.8 28.7 46 -12.1 10.3
01:20 1019 30.09 848 25.04 -1.8 28.7 44 -12.5 9.5
01:25 1019 30.09 848 25.04 -1.7 29 42 -13.1 8.5
01:30 1019 30.09 848 25.04 -1.6 29.1 44 -12.5 9.6
01:35 1019 30.09 848 25.04 -1.7 28.9 44 -12.4 9.7
01:40 1019 30.09 848 25.04 -1.8 28.8 44 -12.4 9.6
01:45 1019 30.09 848 25.04 -1.8 28.8 44 -12.4 9.7
01:50 1019 30.09 848 25.04 -1.8 28.8 45 -12.1 10.2
01:55 1019 30.09 848 25.04 -1.8 28.8 46 -12 10.3
02:00 1019 30.09 848 25.04 -1.8 28.7 46 -11.9 10.6
02:05 1019 30.09 848 25.04 -1.8 28.8 45 -12.4 9.7
02:10 1019 30.09 848 25.04 -1.7 28.9 43 -12.6 9.2
02:15 1019 30.09 848 25.04 -1.7 28.9 45 -12.1 10.3
02:20 1018 30.06 848 25.04 -1.7 28.9 45 -12.1 10.3
02:25 1018 30.06 848 25.04 -1.8 28.8 46 -12 10.3
02:30 1019 30.09 848 25.04 -1.7 28.9 45 -12.2 10.1
02:35 1019 30.09 848 25.04 -1.7 28.9 46 -11.8 10.7
02:40 1019 30.09 848 25.04 -1.8 28.8 46 -12.1 10.3
02:45 1019 30.09 848 25.04 -1.7 28.9 45 -12.3 9.9
02:50 1019 30.09 848 25.04 -1.7 28.9 46 -11.9 10.5
02:55 1019 30.09 848 25.04 -1.7 28.9 47 -11.7 11
03:00 1019 30.09 848 25.04 -1.7 28.9 45 -12.1 10.2
03:05 1019 30.09 848 25.04 -1.8 28.8 44 -12.4 9.7
03:10 1018 30.06 848 25.04 -1.7 28.9 43 -12.9 8.9
03:15 1018 30.06 848 25.04 -1.7 29 42 -12.8 8.9
03:20 1018 30.06 848 25.04 -1.7 29 43 -12.7 9.1
03:25 1018 30.06 847 25.01 -1.7 28.9 43 -12.7 9.2
03:30 1018 30.06 847 25.01 -1.7 28.9 42 -13 8.6
03:35 1018 30.06 847 25.01 -1.7 28.9 42 -13.1 8.4
03:40 1018 30.06 847 25.01 -1.7 29 42 -13.1 8.4
03:45 1018 30.06 847 25.01 -1.7 28.9 42 -12.9 8.7
03:50 1018 30.06 847 25.01 -1.8 28.8 43 -12.7 9.1
03:55 1018 30.06 847 25.01 -1.8 28.8 42 -13 8.6
04:00 1018 30.06 847 25.01 -1.8 28.8 43 -12.7 9.1
04:05 1018 30.06 847 25.01 -1.8 28.7 43 -12.8 8.9
04:10 1018 30.06 847 25.01 -1.8 28.7 41 -13.3 8.1
04:15 1018 30.06 847 25.01 -1.8 28.8 42 -13 8.5
04:20 1018 30.06 847 25.01 -1.8 28.8 40 -13.6 7.5
04:25 1018 30.06 847 25.01 -1.7 28.9 39 -13.8 7.1
04:30 1018 30.06 847 25.01 -1.7 28.9 40 -13.6 7.4
04:35 1018 30.06 847 25.01 -1.8 28.7 43 -12.8 8.9
04:40 1018 30.06 847 25.01 -2 28.3 44 -12.8 9
04:45 1018 30.06 847 25.01 -2.1 28.3 41 -13.5 7.7
04:50 1018 30.06 847 25.01 -2 28.4 41 -13.7 7.3
04:55 1018 30.06 847 25.01 -2 28.4 41 -13.7 7.4
05:00 1018 30.06 847 25.01 -2 28.4 41 -13.6 7.5
05:05 1018 30.06 847 25.01 -2.1 28.3 42 -13.5 7.7
05:10 1018 30.06 847 25.01 -2.1 28.2 42 -13.4 7.9
05:15 1018 30.06 847 25.01 -2.1 28.1 43 -13.3 8.1
05:20 1018 30.06 847 25.01 -2.2 28.1 42 -13.4 7.9
05:25 1018 30.06 847 25.01 -2.2 28.1 43 -13.2 8.3
05:30 1018 30.06 847 25.01 -2.2 28.1 43 -13.2 8.2
05:35 1018 30.06 847 25.01 -2.2 28.1 43 -13.2 8.3
05:40 1018 30.06 847 25.01 -2.2 28 44 -13 8.6
05:45 1018 30.06 848 25.04 -2.2 28 43 -13.1 8.4
05:50 1018 30.06 848 25.04 -2.2 28.1 42 -13.5 7.8
05:55 1018 30.06 847 25.01 -2.1 28.2 41 -13.6 7.6
06:00 1018 30.06 847 25.01 -2.1 28.2 42 -13.5 7.6
06:05 1018 30.06 848 25.04 -2.1 28.2 42 -13.3 8.1
06:10 1018 30.06 848 25.04 -2.1 28.2 43 -13.2 8.2
06:15 1018 30.06 848 25.04 -2.1 28.2 42 -13.3 8
06:20 1018 30.06 848 25.04 -2.1 28.1 41 -13.8 7.1
06:25 1019 30.09 848 25.04 -2.1 28.3 41 -13.8 7.2
06:30 1019 30.09 848 25.04 -2 28.4 40 -14 6.7
06:35 1019 30.09 848 25.04 -2 28.5 40 -14 6.8
06:40 1019 30.09 848 25.04 -2 28.4 40 -13.8 7.2
06:45 1018 30.06 848 25.04 -2.1 28.3 41 -13.7 7.4
06:50 1019 30.09 848 25.04 -2.1 28.2 41 -13.7 7.4
06:55 1019 30.09 848 25.04 -2.1 28.2 41 -13.7 7.4
07:00 1018 30.06 848 25.04 -2.1 28.2 42 -13.5 7.7
07:05 1018 30.06 848 25.04 -2.1 28.3 41 -13.5 7.7
07:10 1018 30.06 848 25.04 -2.1 28.3 42 -13.4 7.9
07:15 1018 30.06 848 25.04 -2.1 28.2 43 -13 8.5
07:20 1018 30.06 848 25.04 -2.1 28.2 45 -12.4 9.6
07:25 1018 30.06 848 25.04 -2.1 28.1 45 -12.7 9.2
07:30 1018 30.06 847 25.01 -2.1 28.2 45 -12.6 9.3
07:35 1018 30.06 848 25.04 -2.1 28.2 45 -12.5 9.5
07:40 1018 30.06 848 25.04 -2.1 28.1 45 -12.5 9.6
07:45 1018 30.06 848 25.04 -2.1 28.2 46 -12.4 9.7
07:50 1018 30.06 848 25.04 -2.1 28.2 45 -12.5 9.4
07:55 1018 30.06 848 25.04 -2.1 28.1 45 -12.7 9.2
08:00 1018 30.06 848 25.04 -2.1 28.3 44 -12.7 9.1
08:05 1018 30.06 847 25.01 -2.1 28.3 44 -12.9 8.8
08:10 1018 30.06 847 25.01 -2 28.3 43 -13 8.6
08:15 1018 30.06 847 25.01 -2 28.5 42 -13.2 8.3
08:20 1018 30.06 847 25.01 -1.9 28.5 42 -13.2 8.2
08:25 1018 30.06 847 25.01 -1.9 28.6 43 -13 8.6
08:30 1018 30.06 847 25.01 -1.9 28.7 43 -13 8.6
08:35 1018 30.06 847 25.01 -1.8 28.7 42 -13 8.6
08:40 1018 30.06 847 25.01 -1.8 28.7 44 -12.7 9.1
08:45 1018 30.06 847 25.01 -2 28.4 47 -11.9 10.6
08:50 1018 30.06 847 25.01 -2.4 27.7 46 -12.4 9.6
08:55 1018 30.06 847 25.01 -2.3 27.8 45 -12.7 9.1
09:00 1018 30.06 847 25.01 -2.2 28.1 45 -12.5 9.5
09:05 1018 30.06 847 25.01 -2.1 28.3 45 -12.6 9.4
09:10 1018 30.06 847 25.01 -1.9 28.5 43 -12.8 9
09:15 1018 30.06 847 25.01 -1.9 28.6 43 -12.7 9.1
09:20 1018 30.06 847 25.01 -1.9 28.5 44 -12.6 9.4
09:25 1018 30.06 847 25.01 -1.9 28.5 45 -12.2 10
09:30 1018 30.06 847 25.01 -1.9 28.6 45 -12.5 9.5
09:35 1018 30.06 847 25.01 -1.6 29.1 41 -13.3 8.1
09:40 1018 30.06 847 25.01 -1.3 29.7 42 -12.7 9.1
09:45 1018 30.06 847 25.01 -1.2 29.9 43 -12.1 10.2
09:50 1018 30.06 847 25.01 -1 30.2 44 -11.7 10.9
09:55 1018 30.06 847 25.01 -0.9 30.3 44 -11.8 10.8
10:00 1018 30.06 847 25.01 -0.9 30.4 45 -11.4 11.4
10:05 1018 30.06 847 25.01 -0.8 30.5 45 -11.3 11.7
10:10 1018 30.06 847 25.01 -0.8 30.5 45 -11.5 11.4
10:15 1018 30.06 847 25.01 -0.8 30.5 45 -11.3 11.6
10:20 1018 30.06 847 25.01 -0.8 30.6 45 -11.3 11.7
10:25 1018 30.06 847 25.01 -0.7 30.8 44 -11.4 11.4
10:30 1018 30.06 847 25.01 -0.7 30.8 44 -11.4 11.5
10:35 1018 30.06 847 25.01 -0.6 30.9 44 -11.4 11.5
10:40 1018 30.06 847 25.01 -0.5 31.1 45 -11 12.2
10:45 1018 30.06 847 25.01 -0.4 31.2 44 -11.1 12
10:50 1018 30.06 847 25.01 -0.4 31.3 43 -11.4 11.5
10:55 1018 30.06 847 25.01 -0.4 31.4 44 -11.2 11.9
11:00 1018 30.06 847 25.01 -0.2 31.7 43 -11.2 11.9
11:05 1018 30.06 847 25.01 -0.1 31.7 44 -11.1 12
11:10 1018 30.06 847 25.01 0 32 43 -11.1 12
11:15 1018 30.06 847 25.01 0.1 32.2 42 -11.3 11.7
11:20 1018 30.06 847 25.01 0.2 32.4 42 -11.2 11.9
11:25 1018 30.06 847 25.01 0.4 32.7 41 -11.5 11.3
11:30 1018 30.06 847 25.01 0.4 32.7 42 -11.2 11.8
11:35 1018 30.06 847 25.01 0.5 32.9 41 -11.3 11.7
11:40 1018 30.06 847 25.01 0.6 33.1 41 -11.1 12
11:45 1018 30.06 847 25.01 0.6 33.1 42 -11 12.2
11:50 1018 30.06 847 25.01 0.7 33.2 42 -10.9 12.4
11:55 1018 30.06 847 25.01 0.8 33.4 40 -11.3 11.6
12:00 1018 30.06 847 25.01 0.7 33.3 40 -11.4 11.5
12:05 1018 30.06 847 25.01 0.8 33.4 40 -11.3 11.6
12:10 1018 30.06 847 25.01 0.7 33.2 41 -11.3 11.6
12:15 1018 30.06 847 25.01 0.7 33.2 40 -11.6 11.2
12:20 1018 30.06 847 25.01 0.7 33.2 39 -11.6 11.1
12:25 1018 30.06 847 25.01 0.7 33.3 40 -11.2 11.8
12:30 1017 30.03 847 25.01 1 33.8 38 -11.7 11
12:35 1017 30.03 847 25.01 1.1 33.9 39 -11.3 11.7
12:40 1017 30.03 846 24.98 1 33.9 39 -11.5 11.4
12:45 1017 30.03 846 24.98 1 33.8 39 -11.4 11.6
12:50 1017 30.03 846 24.98 1 33.8 40 -11.3 11.7
12:55 1017 30.03 846 24.98 1.2 34.2 39 -11.2 11.9
13:00 1017 30.03 846 24.98 1.4 34.5 40 -10.8 12.6
13:05 1017 30.03 846 24.98 1.5 34.7 39 -10.9 12.3
13:10 1017 30.03 846 24.98 1.5 34.7 39 -11 12.3
13:15 1017 30.03 846 24.98 1.4 34.6 40 -10.7 12.8
13:20 1017 30.03 846 24.98 1.5 34.8 40 -10.7 12.7
13:25 1017 30.03 846 24.98 1.6 34.9 40 -10.6 12.9
13:30 1017 30.03 846 24.98 1.6 34.8 41 -10.5 13.2
13:35 1017 30.03 846 24.98 1.6 34.8 40 -10.7 12.8
13:40 1017 30.03 846 24.98 1.6 34.8 39 -10.8 12.6
13:45 1017 30.03 846 24.98 1.6 34.8 40 -10.5 13.1
13:50 1017 30.03 846 24.98 1.6 34.8 40 -10.8 12.6
13:55 1017 30.03 846 24.98 1.7 35 40 -10.5 13.2
14:00 1017 30.03 846 24.98 1.7 35.1 40 -10.6 12.9
14:05 1016 30 846 24.98 1.7 35.1 40 -10.4 13.3
14:10 1016 30 846 24.98 1.7 35.1 40 -10.6 13
14:15 1016 30 846 24.98 1.7 35.1 40 -10.4 13.4
14:20 1016 30 846 24.98 1.7 35.1 40 -10.4 13.3
14:25 1016 30 846 24.98 1.6 34.9 41 -10.1 13.7
14:30 1016 30 845 24.95 1.6 34.8 41 -10.3 13.5
14:35 1016 30 845 24.95 1.6 34.8 42 -9.9 14.3
14:40 1016 30 845 24.95 1.7 35.1 42 -9.9 14.2
14:45 1016 30 845 24.95 1.9 35.4 42 -9.6 14.7
14:50 1016 30 845 24.95 1.9 35.4 44 -9.2 15.4
14:55 1016 30 845 24.95 1.9 35.3 41 -10 13.9
15:00 1016 30 845 24.95 1.6 34.9 42 -10 14
15:05 1016 30 845 24.95 1.7 35 43 -9.7 14.6
15:10 1016 30 845 24.95 1.8 35.2 43 -9.6 14.7
15:15 1016 30 845 24.95 1.8 35.2 42 -9.9 14.2
15:20 1016 30 845 24.95 1.7 35 43 -9.7 14.5
15:25 1016 30 845 24.95 1.7 35.1 42 -9.9 14.2
15:30 1016 30 845 24.95 1.6 35 42 -10 13.9
15:35 1016 30 845 24.95 1.7 35 41 -10.2 13.6
15:40 1015 29.97 845 24.95 1.7 35.1 41 -10.1 13.8
15:45 1015 29.97 845 24.95 1.7 35.1 41 -10.2 13.6
15:50 1015 29.97 844 24.92 1.6 34.9 42 -10.1 13.9
15:55 1015 29.97 844 24.92 1.4 34.4 44 -9.7 14.5
16:00 1015 29.97 844 24.92 1.3 34.3 42 -10.2 13.7
16:05 1015 29.97 844 24.92 1.3 34.4 43 -9.8 14.3
16:10 1015 29.97 844 24.92 1.3 34.3 43 -10 13.9
16:15 1015 29.97 844 24.92 1.2 34.2 42 -10.2 13.6
16:20 1015 29.97 844 24.92 1.4 34.5 43 -9.8 14.4
16:25 1015 29.97 844 24.92 1.4 34.5 45 -9.4 15.1
16:30 1015 29.97 844 24.92 1.4 34.5 44 -9.6 14.7
16:35 1015 29.97 844 24.92 1.4 34.5 45 -9.2 15.4
16:40 1015 29.97 844 24.92 1 33.8 47 -9.1 15.7
16:45 1015 29.97 844 24.92 0.7 33.3 47 -9.5 14.9
16:50 1015 29.97 844 24.92 0.6 33.1 47 -9.4 15.2
16:55 1015 29.97 844 24.92 0.7 33.2 47 -9.3 15.3
17:00 1015 29.97 844 24.92 0.8 33.4 48 -9 15.7
17:05 1015 29.97 844 24.92 0.7 33.3 48 -9.1 15.6
17:10 1015 29.97 844 24.92 0.8 33.5 50 -8.6 16.6
17:15 1015 29.97 844 24.92 0.8 33.4 54 -7.4 18.7
17:20 1015 29.97 844 24.92 0.5 32.9 57 -7.1 19.1
17:25 1015 29.97 844 24.92 0.2 32.4 58 -7.1 19.2
17:30 1015 29.97 844 24.92 0.2 32.3 58 -7.1 19.2
17:35 1015 29.97 844 24.92 0.1 32.2 58 -7.1 19.2
17:40 1015 29.97 844 24.92 -0.3 31.5 60 -7.1 19.2
17:45 1015 29.97 844 24.92 -0.3 31.4 60 -7.1 19.2
17:50 1015 29.97 844 24.92 -0.3 31.5 61 -6.9 19.6
17:55 1015 29.97 844 24.92 -0.3 31.5 63 -6.5 20.2
18:00 1015 29.97 844 24.92 -0.5 31.1 67 -5.9 21.4
18:05 1015 29.97 844 24.92 -0.7 30.7 68 -5.9 21.5
18:10 1015 29.97 844 24.92 -0.8 30.5 69 -5.7 21.7
18:15 1015 29.97 844 24.92 -0.8 30.5 70 -5.6 22
18:20 1015 29.97 844 24.92 -1.1 30.1 73 -5.4 22.3
18:25 1015 29.97 844 24.92 -1.3 29.7 75 -5.1 22.7
18:30 1015 29.97 844 24.92 -1.5 29.4 77 -4.9 23.1
18:35 1015 29.97 844 24.92 -1.5 29.3 78 -4.8 23.4
18:40 1015 29.97 844 24.92 -1.6 29.2 79 -4.7 23.5
18:45 1015 29.97 844 24.92 -1.7 28.9 80 -4.7 23.5
18:50 1015 29.97 844 24.92 -1.8 28.7 81 -4.6 23.7
18:55 1015 29.97 844 24.92 -1.9 28.6 81 -4.7 23.6
19:00 1015 29.97 844 24.92 -1.9 28.6 82 -4.6 23.7
19:05 1014 29.94 844 24.92 -1.9 28.7 82 -4.5 23.8
19:10 1014 29.94 844 24.92 -1.8 28.7 82 -4.5 24
19:15 1014 29.94 844 24.92 -1.9 28.5 83 -4.4 24
19:20 1014 29.94 844 24.92 -1.9 28.5 83 -4.5 24
19:25 1014 29.94 844 24.92 -2 28.4 83 -4.4 24
19:30 1014 29.94 844 24.92 -2 28.4 84 -4.4 24.1
19:35 1014 29.94 844 24.92 -2 28.4 84 -4.3 24.3
19:40 1014 29.94 844 24.92 -2 28.4 85 -4.3 24.3
19:45 1014 29.94 844 24.92 -2 28.3 85 -4.3 24.3
19:50 1015 29.97 844 24.92 -2 28.4 84 -4.3 24.2
19:55 1014 29.94 844 24.92 -2 28.4 84 -4.3 24.2
20:00 1014 29.94 844 24.92 -2 28.3 85 -4.3 24.3
20:05 1015 29.97 844 24.92 -2 28.3 85 -4.2 24.4
20:10 1015 29.97 844 24.92 -2.1 28.2 86 -4.1 24.6
20:15 1014 29.94 844 24.92 -2.1 28.2 87 -4 24.8
20:20 1015 29.97 844 24.92 -2.1 28.3 87 -3.9 25
20:25 1015 29.97 844 24.92 -2.1 28.2 88 -3.8 25.1
20:30 1015 29.97 844 24.92 -2.1 28.2 88 -3.8 25.2
20:35 1015 29.97 844 24.92 -2.1 28.2 89 -3.7 25.3
20:40 1015 29.97 844 24.92 -2.1 28.3 89 -3.6 25.5
20:45 1015 29.97 844 24.92 -2 28.3 89 -3.6 25.5
20:50 1015 29.97 844 24.92 -2.1 28.1 90 -3.6 25.5
20:55 1015 29.97 844 24.92 -2.2 28.1 90 -3.6 25.5
21:00 1015 29.97 844 24.92 -2.2 28.1 90 -3.5 25.6
21:05 1015 29.97 844 24.92 -2.1 28.2 90 -3.5 25.7
21:10 1015 29.97 844 24.92 -2.1 28.2 90 -3.5 25.7
21:15 1015 29.97 844 24.92 -2.3 27.9 91 -3.5 25.6
21:20 1015 29.97 844 24.92 -2.4 27.7 92 -3.6 25.5
21:25 1015 29.97 844 24.92 -2.4 27.7 92 -3.5 25.7
21:30 1015 29.97 844 24.92 -2.3 27.8 92 -3.4 25.9
21:35 1015 29.97 844 24.92 -2.3 27.9 92 -3.5 25.7
21:40 1015 29.97 844 24.92 -2.4 27.7 92 -3.5 25.7
21:45 1015 29.97 844 24.92 -2.4 27.7 92 -3.5 25.8
21:50 1015 29.97 844 24.92 -2.3 27.8 92 -3.4 25.9
21:55 1015 29.97 844 24.92 -2.3 27.8 92 -3.4 25.8
22:00 1015 29.97 844 24.92 -2.3 27.8 92 -3.4 25.8
22:05 1015 29.97 844 24.92 -2.4 27.7 92 -3.5 25.7
22:10 1015 29.97 844 24.92 -2.4 27.7 92 -3.5 25.7
22:15 1015 29.97 844 24.92 -2.5 27.6 92 -3.6 25.5
22:20 1015 29.97 844 24.92 -2.5 27.5 92 -3.7 25.4
22:25 1015 29.97 844 24.92 -2.4 27.6 91 -3.7 25.4
22:30 1015 29.97 844 24.92 -2.5 27.4 91 -3.8 25.2
22:35 1015 29.97 844 24.92 -2.6 27.3 92 -3.8 25.2
22:40 1015 29.97 844 24.92 -2.6 27.3 92 -3.7 25.3
22:45 1015 29.97 844 24.92 -2.5 27.4 92 -3.7 25.4
22:50 1015 29.97 844 24.92 -2.5 27.4 92 -3.7 25.4
22:55 1015 29.97 845 24.95 -2.5 27.5 92 -3.6 25.5
23:00 1015 29.97 845 24.95 -2.5 27.6 92 -3.6 25.4
23:05 1015 29.97 845 24.95 -2.5 27.5 92 -3.7 25.4
23:10 1015 29.97 845 24.95 -2.5 27.5 92 -3.7 25.4
23:15 1016 30 845 24.95 -2.5 27.5 91 -3.7 25.3
23:20 1016 30 845 24.95 -2.5 27.5 92 -3.7 25.4
23:25 1016 30 845 24.95 -2.5 27.6 91 -3.7 25.4
23:30 1016 30 845 24.95 -2.5 27.6 92 -3.7 25.4
23:35 1016 30 845 24.95 -2.5 27.6 92 -3.6 25.5
23:40 1016 30 845 24.95 -2.4 27.7 92 -3.6 25.6
23:45 1016 30 845 24.95 -2.4 27.7 92 -3.5 25.7
23:50 1016 30 845 24.95 -2.4 27.7 92 -3.5 25.6
23:55 1016 30 845 24.95 -2.4 27.7 92 -3.5 25.6
24:00 1016 30 845 24.95 -2.4 27.7 92 -3.5 25.6